This is the latest recevied weather packets stored in our database for station/object N1YZ. If no packets are shown the sender has not sent any weather packets the latest 10 day(s).
| Time | Temp. | Humidity | Pressure | Rain* | Wind** | Luminosity | Snow |
|---|---|---|---|---|---|---|---|
| 1777737981 | 16.11° C | 60% | 1035.6 hPa | 0 mm | - | 246 W/m² | - |
| 1777737680 | 16.11° C | 69% | 1035.6 hPa | 0 mm | - | 220 W/m² | - |
| 1777737378 | 15.56° C | 68% | 1035.5 hPa | 0 mm | - | 200 W/m² | - |
| 1777737075 | 15.56° C | 70% | 1035.3 hPa | 0 mm | - | 189 W/m² | - |
| 1777736770 | 16.11° C | 71% | 1035.6 hPa | 0 mm | - | 181 W/m² | - |
| 1777736143 | 16.11° C | 63% | 1035.4 hPa | 0 mm | - | 198 W/m² | - |
| 1777735840 | 16.11° C | 66% | 1035.6 hPa | 0 mm | - | 186 W/m² | - |
| 1777735537 | 16.11° C | 72% | 1035.5 hPa | 0 mm | - | 189 W/m² | - |
| 1777735234 | 15.56° C | 61% | 1035.4 hPa | 0 mm | - | 283 W/m² | - |
| 1777734931 | 15° C | 78% | 1035.4 hPa | 0 mm | - | 174 W/m² | - |
| 1777734629 | 14.44° C | 78% | 1035.3 hPa | 0 mm | - | 232 W/m² | - |
| 1777734326 | 14.44° C | 77% | 1035.3 hPa | 0 mm | - | 195 W/m² | - |
| 1777734022 | 13.89° C | 79% | 1035 hPa | 0 mm | - | 110 W/m² | - |
| 1777733718 | 14.44° C | 78% | 1035.1 hPa | 0 mm | - | 101 W/m² | - |
| 1777733415 | 13.89° C | 81% | 1035 hPa | 0 mm | - | 108 W/m² | - |
| 1777733111 | 13.89° C | 83% | 1035.2 hPa | 0 mm | - | 134 W/m² | - |
| 1777732809 | 13.89° C | 80% | 1035 hPa | 0 mm | - | 116 W/m² | - |
| 1777732505 | 13.89° C | 83% | 1034.7 hPa | 0 mm | - | 121 W/m² | - |
| 1777732203 | 13.89° C | 82% | 1034.7 hPa | 0 mm | - | 111 W/m² | - |
| 1777731899 | 13.89° C | 83% | 1034.7 hPa | 0 mm | - | 108 W/m² | - |
| 1777731596 | 13.89° C | 81% | 1034.7 hPa | 0 mm | - | 172 W/m² | - |
| 1777731294 | 13.89° C | 83% | 1034.7 hPa | 0 mm | - | 153 W/m² | - |
| 1777730991 | 13.33° C | 79% | 1034.6 hPa | 0 mm | - | 184 W/m² | - |
| 1777730690 | 13.33° C | 80% | 1034.5 hPa | 0 mm | - | 119 W/m² | - |
| 1777730385 | 13.33° C | 83% | 1034.8 hPa | 0 mm | - | 81 W/m² | - |
* Rain latest hour (hover to see other rain measurements)
** Current wind speed in m/s (hover to see current wind gust speed)